Southern Lily — 9VJK4 — position and weather

sailwx.info

Track history (hours):
 
Tides and Currents Weather Stations Pressure Air Temp Water Temp Dewpoint Dewpoint Depression Visibility Wind Speed Wind Dir Waves Ship Positions

Southern Lily

Last reported at 2016-May-19 08:34 UTC. Time now 2016-May-29 23:04 UTC.
Position S 36°19' E 174°59'.
Warning: this ship's position is 10 days out of date.

Length 146 m; draft 8.1 m.

Type: Cargo ship. MMSI: 565050000.

Date/timePositionNaut miles runAvg speedWind from/ knotsBaromVisibWave heightAir tempDewpointWater temp
2016-May-19 08:34S 36°19' E 174°59'8 8.2
2016-May-19 07:34S 36°27' E 174°60'9 8.3
2016-May-19 06:30S 36°36' E 174°58'8 8.3
2016-May-19 05:30S 36°42' E 174°52'8 8.5
2016-May-19 04:30S 36°50' E 174°49'2 1.6
2016-May-19 03:31S 36°51' E 174°47'0 0.0
2016-May-19 02:07S 36°51' E 174°47'0 0.0
2016-May-19 01:31S 36°51' E 174°47'0 0.0
2016-May-19 00:25S 36°51' E 174°47'0 0.0
2016-May-18 23:19S 36°51' E 174°47'0 0.0
2016-May-18 22:25S 36°51' E 174°47'0 0.0
2016-May-18 21:31S 36°51' E 174°47'0 0.0
2016-May-18 20:31S 36°51' E 174°47'0 0.0
2016-May-18 19:19S 36°51' E 174°47'0 0.0
2016-May-18 18:25S 36°51' E 174°47'0 0.0
2016-May-18 17:31S 36°51' E 174°47'0 0.0
2016-May-18 16:31S 36°51' E 174°47'0 0.0
2016-May-18 15:31S 36°51' E 174°47'0 0.0
2016-May-18 14:31S 36°51' E 174°47'0 0.0
2016-May-18 13:31S 36°51' E 174°47'0 0.0
2016-May-18 12:31S 36°51' E 174°47'0 0.0
2016-May-18 11:07S 36°51' E 174°47'0 0.0
2016-May-18 10:31S 36°51' E 174°47'0 0.0
2016-May-18 09:31S 36°51' E 174°47'0 0.0
2016-May-18 08:25S 36°51' E 174°47'0 0.0
2016-May-18 07:31S 36°51' E 174°47'0 0.0
2016-May-18 06:31S 36°51' E 174°47'0 0.0
2016-May-18 05:31S 36°51' E 174°47'0 0.0
2016-May-18 04:25S 36°51' E 174°47'0 0.0
2016-May-18 03:31S 36°51' E 174°47'0 0.0
2016-May-18 02:26S 36°51' E 174°47'0 0.0
2016-May-17 23:30S 36°51' E 174°47'0 0.0
2016-May-17 22:24S 36°51' E 174°47'0 0.0
2016-May-17 21:30S 36°51' E 174°47'0 0.0
2016-May-17 19:24S 36°51' E 174°47'0 0.0
2016-May-17 18:24S 36°51' E 174°47'0 0.0
2016-May-17 17:24S 36°51' E 174°47'0 0.0
2016-May-17 16:30S 36°51' E 174°47'0 0.0
2016-May-17 15:30S 36°51' E 174°47'0 0.0
2016-May-17 14:30S 36°51' E 174°47'0 0.1
2016-May-17 13:33S 36°51' E 174°47'7 6.9
2016-May-17 12:33S 36°44' E 174°51'9 9.0
2016-May-17 11:33S 36°37' E 174°57'9 9.0
2016-May-17 10:33S 36°28' E 174°60'9 9.1
2016-May-17 09:33S 36°19' E 174°59'9 9.4
2016-May-17 08:33S 36°10' E 174°57'  
Track history (hours):
 
Tides and Currents Weather Stations Pressure Air Temp Water Temp Dewpoint Dewpoint Depression Visibility Wind Speed Wind Dir Waves Ship Positions

Southern Lily

Last reported at 2016-May-19 08:34 UTC. Time now 2016-May-29 23:04 UTC.
Position S 36°19' E 174°59'.
Warning: this ship's position is 10 days out of date.

Length 146 m; draft 8.1 m.

Type: Cargo ship. MMSI: 565050000.

Date/timePositionNaut miles runAvg speedWind from/ knotsBaromVisibWave heightAir tempDewpointWater temp
2016-May-19 08:34S 36°19' E 174°59'8 8.2
2016-May-19 07:34S 36°27' E 174°60'9 8.3
2016-May-19 06:30S 36°36' E 174°58'8 8.3
2016-May-19 05:30S 36°42' E 174°52'8 8.5
2016-May-19 04:30S 36°50' E 174°49'2 1.6
2016-May-19 03:31S 36°51' E 174°47'0 0.0
2016-May-19 02:07S 36°51' E 174°47'0 0.0
2016-May-19 01:31S 36°51' E 174°47'0 0.0
2016-May-19 00:25S 36°51' E 174°47'0 0.0
2016-May-18 23:19S 36°51' E 174°47'0 0.0
2016-May-18 22:25S 36°51' E 174°47'0 0.0
2016-May-18 21:31S 36°51' E 174°47'0 0.0
2016-May-18 20:31S 36°51' E 174°47'0 0.0
2016-May-18 19:19S 36°51' E 174°47'0 0.0
2016-May-18 18:25S 36°51' E 174°47'0 0.0
2016-May-18 17:31S 36°51' E 174°47'0 0.0
2016-May-18 16:31S 36°51' E 174°47'0 0.0
2016-May-18 15:31S 36°51' E 174°47'0 0.0
2016-May-18 14:31S 36°51' E 174°47'0 0.0
2016-May-18 13:31S 36°51' E 174°47'0 0.0
2016-May-18 12:31S 36°51' E 174°47'0 0.0
2016-May-18 11:07S 36°51' E 174°47'0 0.0
2016-May-18 10:31S 36°51' E 174°47'0 0.0
2016-May-18 09:31S 36°51' E 174°47'0 0.0
2016-May-18 08:25S 36°51' E 174°47'0 0.0
2016-May-18 07:31S 36°51' E 174°47'0 0.0
2016-May-18 06:31S 36°51' E 174°47'0 0.0
2016-May-18 05:31S 36°51' E 174°47'0 0.0
2016-May-18 04:25S 36°51' E 174°47'0 0.0
2016-May-18 03:31S 36°51' E 174°47'0 0.0
2016-May-18 02:26S 36°51' E 174°47'0 0.0
2016-May-17 23:30S 36°51' E 174°47'0 0.0
2016-May-17 22:24S 36°51' E 174°47'0 0.0
2016-May-17 21:30S 36°51' E 174°47'0 0.0
2016-May-17 19:24S 36°51' E 174°47'0 0.0
2016-May-17 18:24S 36°51' E 174°47'0 0.0
2016-May-17 17:24S 36°51' E 174°47'0 0.0
2016-May-17 16:30S 36°51' E 174°47'0 0.0
2016-May-17 15:30S 36°51' E 174°47'0 0.0
2016-May-17 14:30S 36°51' E 174°47'0 0.1
2016-May-17 13:33S 36°51' E 174°47'7 6.9
2016-May-17 12:33S 36°44' E 174°51'9 9.0
2016-May-17 11:33S 36°37' E 174°57'9 9.0
2016-May-17 10:33S 36°28' E 174°60'9 9.1
2016-May-17 09:33S 36°19' E 174°59'9 9.4
2016-May-17 08:33S 36°10' E 174°57'  

Dump ship's entire track history